sensor_id;sensor_type;location;lat;lon;timestamp;pressure;altitude;pressure_sealevel;temperature;humidity
53679;BME280;40119;52.030;4.708;2022-08-19T00:01:18;101415.99;;;27.32;34.68
53679;BME280;40119;52.030;4.708;2022-08-19T00:03:22;101414.76;;;27.90;34.52
53679;BME280;40119;52.030;4.708;2022-08-19T00:05:26;101414.67;;;28.21;34.10
53679;BME280;40119;52.030;4.708;2022-08-19T00:07:31;101412.36;;;28.03;34.23
53679;BME280;40119;52.030;4.708;2022-08-19T00:09:36;101410.38;;;27.80;34.46
53679;BME280;40119;52.030;4.708;2022-08-19T00:11:41;101407.35;;;27.15;35.23
53679;BME280;40119;52.030;4.708;2022-08-19T00:13:46;101404.21;;;27.71;34.50
53679;BME280;40119;52.030;4.708;2022-08-19T00:15:51;101404.86;;;28.05;34.18
53679;BME280;40119;52.030;4.708;2022-08-19T00:17:56;101406.43;;;28.80;33.80
53679;BME280;40119;52.030;4.708;2022-08-19T00:20:00;101410.26;;;27.80;34.86
53679;BME280;40119;52.030;4.708;2022-08-19T00:22:05;101415.92;;;28.32;34.22
53679;BME280;40119;52.030;4.708;2022-08-19T00:24:16;101419.98;;;28.25;33.91
53679;BME280;40119;52.030;4.708;2022-08-19T00:26:20;101424.27;;;26.97;35.87
53679;BME280;40119;52.030;4.708;2022-08-19T00:28:25;101417.62;;;27.62;34.86
53679;BME280;40119;52.030;4.708;2022-08-19T00:30:30;101411.61;;;27.47;35.12
53679;BME280;40119;52.030;4.708;2022-08-19T00:32:34;101411.87;;;26.85;35.81
53679;BME280;40119;52.030;4.708;2022-08-19T00:34:39;101407.68;;;25.91;38.13
53679;BME280;40119;52.030;4.708;2022-08-19T00:36:43;101404.80;;;27.20;35.57
53679;BME280;40119;52.030;4.708;2022-08-19T00:38:48;101401.06;;;27.63;35.28
53679;BME280;40119;52.030;4.708;2022-08-19T00:40:53;101404.39;;;27.54;35.45
53679;BME280;40119;52.030;4.708;2022-08-19T00:42:57;101405.83;;;27.18;35.71
53679;BME280;40119;52.030;4.708;2022-08-19T00:45:09;101400.70;;;26.86;35.85
53679;BME280;40119;52.030;4.708;2022-08-19T00:47:19;101396.62;;;27.87;34.70
53679;BME280;40119;52.030;4.708;2022-08-19T00:49:27;101396.89;;;27.30;35.38
53679;BME280;40119;52.030;4.708;2022-08-19T00:51:33;101406.41;;;27.32;35.29
53679;BME280;40119;52.030;4.708;2022-08-19T00:53:37;101406.92;;;27.23;35.04
53679;BME280;40119;52.030;4.708;2022-08-19T00:55:42;101407.63;;;28.40;34.22
53679;BME280;40119;52.030;4.708;2022-08-19T00:57:56;101405.60;;;27.91;34.15
53679;BME280;40119;52.030;4.708;2022-08-19T01:00:06;101404.73;;;27.46;34.68
53679;BME280;40119;52.030;4.708;2022-08-19T01:02:13;101409.89;;;27.89;34.27
53679;BME280;40119;52.030;4.708;2022-08-19T01:04:18;101413.90;;;27.59;34.56
53679;BME280;40119;52.030;4.708;2022-08-19T01:06:22;101414.91;;;27.65;34.49
53679;BME280;40119;52.030;4.708;2022-08-19T01:08:26;101418.02;;;27.24;35.22
53679;BME280;40119;52.030;4.708;2022-08-19T01:10:36;101419.35;;;26.86;35.37
53679;BME280;40119;52.030;4.708;2022-08-19T01:12:41;101415.69;;;27.50;34.59
53679;BME280;40119;52.030;4.708;2022-08-19T01:14:46;101417.69;;;27.41;34.67
53679;BME280;40119;52.030;4.708;2022-08-19T01:16:52;101419.12;;;27.20;34.92
53679;BME280;40119;52.030;4.708;2022-08-19T01:18:58;101415.51;;;27.93;34.63
53679;BME280;40119;52.030;4.708;2022-08-19T01:21:06;101417.40;;;27.13;35.03
53679;BME280;40119;52.030;4.708;2022-08-19T01:23:14;101415.02;;;27.84;34.24
53679;BME280;40119;52.030;4.708;2022-08-19T01:25:24;101413.74;;;27.23;34.96
53679;BME280;40119;52.030;4.708;2022-08-19T01:27:38;101412.43;;;26.96;35.78
53679;BME280;40119;52.030;4.708;2022-08-19T01:29:44;101417.32;;;26.62;36.34
53679;BME280;40119;52.030;4.708;2022-08-19T01:31:49;101415.96;;;26.97;35.97
53679;BME280;40119;52.030;4.708;2022-08-19T01:33:56;101419.21;;;27.30;35.43
53679;BME280;40119;52.030;4.708;2022-08-19T01:36:06;101419.61;;;26.00;37.24
53679;BME280;40119;52.030;4.708;2022-08-19T01:38:21;101414.31;;;27.54;34.65
53679;BME280;40119;52.030;4.708;2022-08-19T01:40:28;101418.84;;;27.35;34.99
53679;BME280;40119;52.030;4.708;2022-08-19T01:42:33;101421.77;;;27.66;35.04
53679;BME280;40119;52.030;4.708;2022-08-19T01:44:38;101422.36;;;26.90;36.01
53679;BME280;40119;52.030;4.708;2022-08-19T01:46:44;101423.29;;;26.68;35.53
53679;BME280;40119;52.030;4.708;2022-08-19T01:48:48;101423.34;;;27.48;35.17
53679;BME280;40119;52.030;4.708;2022-08-19T01:50:53;101421.43;;;27.83;34.46
53679;BME280;40119;52.030;4.708;2022-08-19T01:52:58;101426.05;;;27.30;35.43
53679;BME280;40119;52.030;4.708;2022-08-19T01:55:06;101426.84;;;27.54;35.12
53679;BME280;40119;52.030;4.708;2022-08-19T01:57:14;101422.27;;;27.74;34.82
53679;BME280;40119;52.030;4.708;2022-08-19T01:59:21;101419.60;;;27.26;35.23
53679;BME280;40119;52.030;4.708;2022-08-19T02:01:27;101416.55;;;27.71;34.90
53679;BME280;40119;52.030;4.708;2022-08-19T02:03:31;101412.84;;;27.75;34.58
53679;BME280;40119;52.030;4.708;2022-08-19T02:05:36;101411.95;;;28.01;34.41
53679;BME280;40119;52.030;4.708;2022-08-19T02:07:40;101409.26;;;27.64;34.57
53679;BME280;40119;52.030;4.708;2022-08-19T02:09:45;101414.47;;;27.22;34.94
53679;BME280;40119;52.030;4.708;2022-08-19T02:11:49;101415.16;;;27.34;35.03
53679;BME280;40119;52.030;4.708;2022-08-19T02:13:54;101415.40;;;27.84;34.76
53679;BME280;40119;52.030;4.708;2022-08-19T02:15:59;101421.20;;;27.10;35.41
53679;BME280;40119;52.030;4.708;2022-08-19T02:18:03;101424.15;;;27.22;35.28
53679;BME280;40119;52.030;4.708;2022-08-19T02:20:09;101423.54;;;27.16;35.77
53679;BME280;40119;52.030;4.708;2022-08-19T02:22:19;101421.97;;;27.32;35.26
53679;BME280;40119;52.030;4.708;2022-08-19T02:24:23;101416.52;;;27.78;34.80
53679;BME280;40119;52.030;4.708;2022-08-19T02:26:28;101417.26;;;27.57;34.95
53679;BME280;40119;52.030;4.708;2022-08-19T02:28:32;101417.64;;;26.98;35.42
53679;BME280;40119;52.030;4.708;2022-08-19T02:30:42;101410.70;;;27.41;35.15
53679;BME280;40119;52.030;4.708;2022-08-19T02:32:46;101412.97;;;27.40;34.87
53679;BME280;40119;52.030;4.708;2022-08-19T02:34:50;101414.66;;;27.45;34.77
53679;BME280;40119;52.030;4.708;2022-08-19T02:36:55;101412.56;;;27.20;35.09
53679;BME280;40119;52.030;4.708;2022-08-19T02:38:59;101413.70;;;27.00;35.24
53679;BME280;40119;52.030;4.708;2022-08-19T02:41:06;101407.69;;;26.70;35.94
53679;BME280;40119;52.030;4.708;2022-08-19T02:43:12;101404.35;;;27.12;35.22
53679;BME280;40119;52.030;4.708;2022-08-19T02:45:17;101399.00;;;27.24;35.27
53679;BME280;40119;52.030;4.708;2022-08-19T02:47:21;101397.82;;;27.19;35.20
53679;BME280;40119;52.030;4.708;2022-08-19T02:49:26;101398.33;;;27.03;35.64
53679;BME280;40119;52.030;4.708;2022-08-19T02:51:33;101396.48;;;26.76;35.91
53679;BME280;40119;52.030;4.708;2022-08-19T02:53:38;101394.85;;;27.09;35.10
53679;BME280;40119;52.030;4.708;2022-08-19T02:55:44;101386.17;;;27.55;34.84
53679;BME280;40119;52.030;4.708;2022-08-19T02:57:49;101387.23;;;27.43;35.00
53679;BME280;40119;52.030;4.708;2022-08-19T02:59:54;101385.00;;;27.78;34.39
53679;BME280;40119;52.030;4.708;2022-08-19T03:01:58;101387.68;;;27.19;35.30
53679;BME280;40119;52.030;4.708;2022-08-19T03:04:05;101387.77;;;26.67;36.04
53679;BME280;40119;52.030;4.708;2022-08-19T03:06:12;101390.92;;;26.98;35.36
53679;BME280;40119;52.030;4.708;2022-08-19T03:08:17;101391.41;;;26.93;35.79
53679;BME280;40119;52.030;4.708;2022-08-19T03:10:22;101390.03;;;26.26;36.42
53679;BME280;40119;52.030;4.708;2022-08-19T03:12:26;101384.13;;;27.44;35.07
53679;BME280;40119;52.030;4.708;2022-08-19T03:14:31;101387.38;;;27.38;35.17
53679;BME280;40119;52.030;4.708;2022-08-19T03:16:45;101386.75;;;25.57;37.26
53679;BME280;40119;52.030;4.708;2022-08-19T03:18:53;101387.48;;;26.69;36.06
53679;BME280;40119;52.030;4.708;2022-08-19T03:20:57;101385.78;;;27.25;34.92
53679;BME280;40119;52.030;4.708;2022-08-19T03:23:02;101383.71;;;27.13;35.29
53679;BME280;40119;52.030;4.708;2022-08-19T03:25:07;101380.51;;;25.78;36.99
53679;BME280;40119;52.030;4.708;2022-08-19T03:27:12;101377.71;;;26.13;36.79
53679;BME280;40119;52.030;4.708;2022-08-19T03:29:18;101371.22;;;27.68;34.94
53679;BME280;40119;52.030;4.708;2022-08-19T03:31:24;101372.26;;;27.10;35.37
53679;BME280;40119;52.030;4.708;2022-08-19T03:33:30;101370.11;;;27.37;35.06
53679;BME280;40119;52.030;4.708;2022-08-19T03:35:35;101365.27;;;27.43;34.91
53679;BME280;40119;52.030;4.708;2022-08-19T03:37:44;101370.07;;;27.17;35.01
53679;BME280;40119;52.030;4.708;2022-08-19T03:39:48;101371.10;;;26.98;35.23
53679;BME280;40119;52.030;4.708;2022-08-19T03:41:53;101370.60;;;26.14;36.15
53679;BME280;40119;52.030;4.708;2022-08-19T03:43:59;101370.94;;;27.09;35.14
53679;BME280;40119;52.030;4.708;2022-08-19T03:46:06;101371.84;;;27.24;34.93
53679;BME280;40119;52.030;4.708;2022-08-19T03:48:10;101379.47;;;26.85;35.08
53679;BME280;40119;52.030;4.708;2022-08-19T03:50:15;101382.63;;;27.10;35.08
53679;BME280;40119;52.030;4.708;2022-08-19T03:52:20;101382.23;;;25.31;37.97
53679;BME280;40119;52.030;4.708;2022-08-19T03:54:25;101384.02;;;26.87;35.93
53679;BME280;40119;52.030;4.708;2022-08-19T03:56:30;101385.36;;;26.65;36.13
53679;BME280;40119;52.030;4.708;2022-08-19T03:58:34;101384.51;;;24.82;38.96
53679;BME280;40119;52.030;4.708;2022-08-19T04:00:41;101384.76;;;26.06;37.33
53679;BME280;40119;52.030;4.708;2022-08-19T04:02:46;101382.85;;;26.42;36.79
53679;BME280;40119;52.030;4.708;2022-08-19T04:04:53;101388.91;;;26.91;36.04
53679;BME280;40119;52.030;4.708;2022-08-19T04:07:03;101389.04;;;26.17;37.53
53679;BME280;40119;52.030;4.708;2022-08-19T04:09:10;101395.10;;;26.95;35.82
53679;BME280;40119;52.030;4.708;2022-08-19T04:11:16;101393.98;;;26.85;35.73
53679;BME280;40119;52.030;4.708;2022-08-19T04:13:21;101391.71;;;25.88;36.83
53679;BME280;40119;52.030;4.708;2022-08-19T04:15:26;101387.84;;;26.18;36.72
53679;BME280;40119;52.030;4.708;2022-08-19T04:17:31;101387.08;;;26.90;35.73
53679;BME280;40119;52.030;4.708;2022-08-19T04:19:36;101384.61;;;27.22;35.27
53679;BME280;40119;52.030;4.708;2022-08-19T04:21:43;101385.42;;;27.08;35.58
53679;BME280;40119;52.030;4.708;2022-08-19T04:23:48;101388.55;;;26.88;35.63
53679;BME280;40119;52.030;4.708;2022-08-19T04:25:54;101390.24;;;26.74;35.99
53679;BME280;40119;52.030;4.708;2022-08-19T04:27:59;101397.56;;;20.06;48.75
53679;BME280;40119;52.030;4.708;2022-08-19T04:30:04;101391.68;;;25.26;40.54
53679;BME280;40119;52.030;4.708;2022-08-19T04:32:08;101397.15;;;21.87;45.29
53679;BME280;40119;52.030;4.708;2022-08-19T04:34:16;101397.07;;;21.86;46.37
53679;BME280;40119;52.030;4.708;2022-08-19T04:36:24;101397.95;;;21.83;46.42
53679;BME280;40119;52.030;4.708;2022-08-19T04:38:29;101389.01;;;24.87;41.25
53679;BME280;40119;52.030;4.708;2022-08-19T04:40:39;101388.88;;;25.59;39.16
53679;BME280;40119;52.030;4.708;2022-08-19T04:42:43;101398.24;;;18.66;51.97
53679;BME280;40119;52.030;4.708;2022-08-19T04:44:48;101397.06;;;22.33;46.54
53679;BME280;40119;52.030;4.708;2022-08-19T04:46:52;101392.32;;;23.41;44.57
53679;BME280;40119;52.030;4.708;2022-08-19T04:48:57;101396.74;;;22.15;46.16
53679;BME280;40119;52.030;4.708;2022-08-19T04:51:07;101403.44;;;20.03;52.62
53679;BME280;40119;52.030;4.708;2022-08-19T04:53:12;101405.65;;;17.41;59.87
53679;BME280;40119;52.030;4.708;2022-08-19T04:55:17;101411.48;;;15.95;64.30
53679;BME280;40119;52.030;4.708;2022-08-19T04:57:21;101416.65;;;13.73;74.52
53679;BME280;40119;52.030;4.708;2022-08-19T04:59:26;101419.78;;;14.06;77.48
53679;BME280;40119;52.030;4.708;2022-08-19T05:01:32;101418.79;;;16.18;68.59
53679;BME280;40119;52.030;4.708;2022-08-19T05:03:37;101423.85;;;16.42;70.78
53679;BME280;40119;52.030;4.708;2022-08-19T05:05:42;101426.37;;;14.28;74.25
53679;BME280;40119;52.030;4.708;2022-08-19T05:07:46;101431.13;;;13.54;80.26
53679;BME280;40119;52.030;4.708;2022-08-19T05:09:51;101429.96;;;15.40;76.19
53679;BME280;40119;52.030;4.708;2022-08-19T05:11:55;101431.06;;;14.56;78.53
53679;BME280;40119;52.030;4.708;2022-08-19T05:14:00;101428.45;;;16.87;70.44
53679;BME280;40119;52.030;4.708;2022-08-19T05:16:05;101432.54;;;14.70;77.67
53679;BME280;40119;52.030;4.708;2022-08-19T05:18:10;101430.89;;;16.36;71.73
53679;BME280;40119;52.030;4.708;2022-08-19T05:20:15;101419.57;;;18.30;66.49
53679;BME280;40119;52.030;4.708;2022-08-19T05:22:20;101415.82;;;19.31;61.72
53679;BME280;40119;52.030;4.708;2022-08-19T05:24:24;101419.82;;;18.33;63.84
53679;BME280;40119;52.030;4.708;2022-08-19T05:26:30;101424.65;;;17.64;66.74
53679;BME280;40119;52.030;4.708;2022-08-19T05:28:34;101432.18;;;17.06;71.92
53679;BME280;40119;52.030;4.708;2022-08-19T05:30:38;101427.18;;;17.25;67.19
53679;BME280;40119;52.030;4.708;2022-08-19T05:32:43;101424.83;;;18.22;66.90
53679;BME280;40119;52.030;4.708;2022-08-19T05:34:47;101421.53;;;19.35;62.46
53679;BME280;40119;52.030;4.708;2022-08-19T05:36:53;101428.81;;;16.87;73.69
53679;BME280;40119;52.030;4.708;2022-08-19T05:38:58;101425.39;;;17.13;70.41
53679;BME280;40119;52.030;4.708;2022-08-19T05:41:07;101423.18;;;18.01;68.55
53679;BME280;40119;52.030;4.708;2022-08-19T05:43:13;101428.03;;;16.08;75.74
53679;BME280;40119;52.030;4.708;2022-08-19T05:45:18;101419.95;;;19.77;63.31
53679;BME280;40119;52.030;4.708;2022-08-19T05:47:22;101420.69;;;18.89;65.09
53679;BME280;40119;52.030;4.708;2022-08-19T05:49:27;101422.23;;;18.86;62.05
53679;BME280;40119;52.030;4.708;2022-08-19T05:51:33;101422.67;;;20.18;61.08
53679;BME280;40119;52.030;4.708;2022-08-19T05:53:38;101418.27;;;21.07;57.12
53679;BME280;40119;52.030;4.708;2022-08-19T05:55:42;101423.06;;;21.82;54.34
53679;BME280;40119;52.030;4.708;2022-08-19T05:57:47;101434.55;;;15.49;72.04
53679;BME280;40119;52.030;4.708;2022-08-19T05:59:52;101424.14;;;18.57;63.91
53679;BME280;40119;52.030;4.708;2022-08-19T06:01:56;101420.20;;;19.21;62.02
53679;BME280;40119;52.030;4.708;2022-08-19T06:04:02;101421.84;;;20.28;58.57
53679;BME280;40119;52.030;4.708;2022-08-19T06:06:09;101416.06;;;19.67;58.84
53679;BME280;40119;52.030;4.708;2022-08-19T06:08:15;101417.71;;;18.18;63.07
53679;BME280;40119;52.030;4.708;2022-08-19T06:10:20;101420.07;;;17.12;66.85
53679;BME280;40119;52.030;4.708;2022-08-19T06:12:24;101426.65;;;16.78;67.93
53679;BME280;40119;52.030;4.708;2022-08-19T06:14:31;101422.29;;;16.12;73.11
53679;BME280;40119;52.030;4.708;2022-08-19T06:16:37;101416.07;;;18.12;64.25
53679;BME280;40119;52.030;4.708;2022-08-19T06:18:42;101414.33;;;19.90;61.20
53679;BME280;40119;52.030;4.708;2022-08-19T06:20:46;101418.61;;;17.71;66.00
53679;BME280;40119;52.030;4.708;2022-08-19T06:22:50;101418.59;;;19.23;59.93
53679;BME280;40119;52.030;4.708;2022-08-19T06:24:55;101425.88;;;18.83;65.73
53679;BME280;40119;52.030;4.708;2022-08-19T06:27:01;101433.06;;;16.83;71.90
53679;BME280;40119;52.030;4.708;2022-08-19T06:29:07;101424.26;;;20.58;59.13
53679;BME280;40119;52.030;4.708;2022-08-19T06:31:15;101423.97;;;17.88;67.35
53679;BME280;40119;52.030;4.708;2022-08-19T06:33:20;101417.53;;;18.70;62.53
53679;BME280;40119;52.030;4.708;2022-08-19T06:35:24;101424.71;;;18.14;65.35
53679;BME280;40119;52.030;4.708;2022-08-19T06:37:28;101420.76;;;19.21;62.03
53679;BME280;40119;52.030;4.708;2022-08-19T06:39:38;101428.51;;;16.56;69.59
53679;BME280;40119;52.030;4.708;2022-08-19T06:41:45;101419.68;;;18.46;65.51
53679;BME280;40119;52.030;4.708;2022-08-19T06:43:51;101418.60;;;17.86;66.76
53679;BME280;40119;52.030;4.708;2022-08-19T06:45:55;101411.85;;;19.48;60.30
53679;BME280;40119;52.030;4.708;2022-08-19T06:48:02;101419.41;;;15.78;73.85
53679;BME280;40119;52.030;4.708;2022-08-19T06:50:07;101419.80;;;16.58;73.15
53679;BME280;40119;52.030;4.708;2022-08-19T06:52:13;101421.90;;;15.93;73.45
53679;BME280;40119;52.030;4.708;2022-08-19T06:54:18;101423.67;;;16.79;73.42
53679;BME280;40119;52.030;4.708;2022-08-19T06:56:26;101420.37;;;18.27;66.46
53679;BME280;40119;52.030;4.708;2022-08-19T06:58:31;101420.34;;;19.05;65.36
53679;BME280;40119;52.030;4.708;2022-08-19T07:00:36;101426.15;;;18.31;66.69
53679;BME280;40119;52.030;4.708;2022-08-19T07:02:41;101420.22;;;19.41;63.71
53679;BME280;40119;52.030;4.708;2022-08-19T07:04:46;101428.00;;;18.09;68.22
53679;BME280;40119;52.030;4.708;2022-08-19T07:06:58;101427.69;;;18.77;64.60
53679;BME280;40119;52.030;4.708;2022-08-19T07:09:04;101430.45;;;20.51;60.58
53679;BME280;40119;52.030;4.708;2022-08-19T07:11:11;101440.72;;;16.74;70.73
53679;BME280;40119;52.030;4.708;2022-08-19T07:13:17;101441.44;;;17.28;69.39
53679;BME280;40119;52.030;4.708;2022-08-19T07:15:24;101444.58;;;18.37;66.80
53679;BME280;40119;52.030;4.708;2022-08-19T07:17:28;101452.14;;;16.87;71.67
53679;BME280;40119;52.030;4.708;2022-08-19T07:19:35;101455.93;;;16.06;76.25
53679;BME280;40119;52.030;4.708;2022-08-19T07:21:40;101457.46;;;16.19;78.11
53679;BME280;40119;52.030;4.708;2022-08-19T07:23:46;101455.42;;;17.45;73.74
53679;BME280;40119;52.030;4.708;2022-08-19T07:25:51;101452.53;;;16.30;76.88
53679;BME280;40119;52.030;4.708;2022-08-19T07:27:56;101449.32;;;16.59;75.02
53679;BME280;40119;52.030;4.708;2022-08-19T07:30:00;101448.22;;;16.08;76.18
53679;BME280;40119;52.030;4.708;2022-08-19T07:32:06;101446.70;;;15.53;81.57
53679;BME280;40119;52.030;4.708;2022-08-19T07:34:11;101440.81;;;16.88;75.29
53679;BME280;40119;52.030;4.708;2022-08-19T07:36:19;101442.34;;;16.70;75.71
53679;BME280;40119;52.030;4.708;2022-08-19T07:38:24;101441.26;;;18.56;67.43
53679;BME280;40119;52.030;4.708;2022-08-19T07:40:29;101438.83;;;19.41;63.55
53679;BME280;40119;52.030;4.708;2022-08-19T07:42:35;101443.35;;;19.33;66.00
53679;BME280;40119;52.030;4.708;2022-08-19T07:44:41;101446.03;;;18.64;67.55
53679;BME280;40119;52.030;4.708;2022-08-19T07:48:45;101449.90;;;18.04;69.76
53679;BME280;40119;52.030;4.708;2022-08-19T07:51:05;101446.90;;;17.73;71.23
53679;BME280;40119;52.030;4.708;2022-08-19T07:53:11;101444.79;;;20.59;60.77
53679;BME280;40119;52.030;4.708;2022-08-19T07:55:24;101445.18;;;18.69;65.60
53679;BME280;40119;52.030;4.708;2022-08-19T08:02:27;101462.13;;;19.46;65.23
53679;BME280;40119;52.030;4.708;2022-08-19T08:07:50;101472.78;;;18.53;67.76
53679;BME280;40119;52.030;4.708;2022-08-19T08:09:55;101478.26;;;18.83;66.53
53679;BME280;40119;52.030;4.708;2022-08-19T08:12:07;101470.66;;;19.47;63.03
53679;BME280;40119;52.030;4.708;2022-08-19T08:14:13;101474.40;;;20.39;62.39
53679;BME280;40119;52.030;4.708;2022-08-19T08:16:19;101470.12;;;20.58;59.23
53679;BME280;40119;52.030;4.708;2022-08-19T08:18:25;101477.87;;;16.66;71.20
53679;BME280;40119;52.030;4.708;2022-08-19T08:20:30;101475.33;;;18.65;66.19
53679;BME280;40119;52.030;4.708;2022-08-19T08:23:05;101485.55;;;16.32;72.49
53679;BME280;40119;52.030;4.708;2022-08-19T08:25:20;101482.61;;;17.04;70.10
53679;BME280;40119;52.030;4.708;2022-08-19T08:27:25;101476.09;;;22.64;55.45
53679;BME280;40119;52.030;4.708;2022-08-19T08:29:30;101482.28;;;18.05;66.06
53679;BME280;40119;52.030;4.708;2022-08-19T08:31:36;101484.70;;;17.42;69.62
53679;BME280;40119;52.030;4.708;2022-08-19T08:33:41;101481.94;;;17.60;69.71
53679;BME280;40119;52.030;4.708;2022-08-19T08:35:46;101483.92;;;18.34;67.99
53679;BME280;40119;52.030;4.708;2022-08-19T08:37:52;101483.22;;;19.12;63.64
53679;BME280;40119;52.030;4.708;2022-08-19T08:39:57;101485.70;;;21.31;58.52
53679;BME280;40119;52.030;4.708;2022-08-19T08:42:14;101488.25;;;22.15;56.45
53679;BME280;40119;52.030;4.708;2022-08-19T08:44:28;101492.26;;;22.46;54.11
53679;BME280;40119;52.030;4.708;2022-08-19T08:46:45;101495.15;;;19.38;60.80
53679;BME280;40119;52.030;4.708;2022-08-19T08:48:56;101496.86;;;19.43;62.11
53679;BME280;40119;52.030;4.708;2022-08-19T08:51:04;101493.50;;;20.23;59.05
53679;BME280;40119;52.030;4.708;2022-08-19T08:53:10;101493.08;;;21.21;57.24
53679;BME280;40119;52.030;4.708;2022-08-19T08:55:20;101495.74;;;20.05;59.84
53679;BME280;40119;52.030;4.708;2022-08-19T08:57:30;101492.98;;;23.54;52.01
53679;BME280;40119;52.030;4.708;2022-08-19T08:59:38;101498.71;;;21.10;56.14
53679;BME280;40119;52.030;4.708;2022-08-19T09:01:43;101500.12;;;21.90;55.10
53679;BME280;40119;52.030;4.708;2022-08-19T09:03:48;101500.30;;;20.95;57.38
53679;BME280;40119;52.030;4.708;2022-08-19T09:05:58;101501.10;;;19.61;60.22
53679;BME280;40119;52.030;4.708;2022-08-19T09:08:08;101498.37;;;20.13;59.56
53679;BME280;40119;52.030;4.708;2022-08-19T09:10:22;101496.14;;;24.07;50.78
53679;BME280;40119;52.030;4.708;2022-08-19T09:12:39;101500.75;;;23.08;51.97
53679;BME280;40119;52.030;4.708;2022-08-19T09:14:49;101496.77;;;23.16;53.10
53679;BME280;40119;52.030;4.708;2022-08-19T09:17:08;101492.46;;;23.13;50.88
53679;BME280;40119;52.030;4.708;2022-08-19T09:19:14;101496.67;;;20.66;56.61
53679;BME280;40119;52.030;4.708;2022-08-19T09:21:20;101489.60;;;25.85;46.62
53679;BME280;40119;52.030;4.708;2022-08-19T09:23:24;101494.60;;;24.76;48.69
53679;BME280;40119;52.030;4.708;2022-08-19T09:25:29;101499.66;;;23.22;52.72
53679;BME280;40119;52.030;4.708;2022-08-19T09:27:35;101498.84;;;24.18;48.54
53679;BME280;40119;52.030;4.708;2022-08-19T09:29:40;101499.19;;;24.46;49.03
53679;BME280;40119;52.030;4.708;2022-08-19T09:31:44;101501.77;;;22.20;52.39
53679;BME280;40119;52.030;4.708;2022-08-19T09:33:49;101503.02;;;19.76;58.45
53679;BME280;40119;52.030;4.708;2022-08-19T09:36:02;101495.56;;;21.93;54.22
53679;BME280;40119;52.030;4.708;2022-08-19T09:38:07;101492.79;;;21.91;53.78
53679;BME280;40119;52.030;4.708;2022-08-19T09:40:13;101484.89;;;24.85;46.88
53679;BME280;40119;52.030;4.708;2022-08-19T09:42:18;101487.84;;;23.39;49.44
53679;BME280;40119;52.030;4.708;2022-08-19T09:44:23;101489.76;;;23.76;50.30
53679;BME280;40119;52.030;4.708;2022-08-19T09:46:29;101488.06;;;23.47;51.75
53679;BME280;40119;52.030;4.708;2022-08-19T09:48:34;101491.04;;;26.20;46.03
53679;BME280;40119;52.030;4.708;2022-08-19T09:50:40;101489.31;;;23.74;49.99
53679;BME280;40119;52.030;4.708;2022-08-19T09:52:44;101488.94;;;25.52;45.52
53679;BME280;40119;52.030;4.708;2022-08-19T09:54:51;101480.68;;;28.35;39.04
53679;BME280;40119;52.030;4.708;2022-08-19T09:56:58;101488.01;;;26.03;41.79
53679;BME280;40119;52.030;4.708;2022-08-19T09:59:03;101495.96;;;21.88;49.53
53679;BME280;40119;52.030;4.708;2022-08-19T10:01:08;101489.88;;;23.51;48.13
53679;BME280;40119;52.030;4.708;2022-08-19T10:03:14;101490.30;;;23.68;49.19
53679;BME280;40119;52.030;4.708;2022-08-19T10:05:19;101498.70;;;21.62;53.90
53679;BME280;40119;52.030;4.708;2022-08-19T10:07:24;101500.09;;;19.52;57.46
53679;BME280;40119;52.030;4.708;2022-08-19T10:09:28;101503.32;;;20.75;57.21
53679;BME280;40119;52.030;4.708;2022-08-19T10:11:33;101493.09;;;23.90;50.18
53679;BME280;40119;52.030;4.708;2022-08-19T10:13:43;101498.65;;;20.60;56.77
53679;BME280;40119;52.030;4.708;2022-08-19T10:15:48;101501.43;;;18.37;62.44
53679;BME280;40119;52.030;4.708;2022-08-19T10:17:54;101498.17;;;18.64;62.84
53679;BME280;40119;52.030;4.708;2022-08-19T10:19:58;101495.57;;;21.54;56.63
53679;BME280;40119;52.030;4.708;2022-08-19T10:22:04;101493.75;;;19.46;61.75
53679;BME280;40119;52.030;4.708;2022-08-19T10:24:08;101495.20;;;20.24;59.29
53679;BME280;40119;52.030;4.708;2022-08-19T10:26:18;101494.89;;;23.56;52.07
53679;BME280;40119;52.030;4.708;2022-08-19T10:28:24;101496.44;;;20.99;55.78
53679;BME280;40119;52.030;4.708;2022-08-19T10:30:28;101502.50;;;17.75;66.04
53679;BME280;40119;52.030;4.708;2022-08-19T10:32:38;101497.70;;;18.35;64.66
53679;BME280;40119;52.030;4.708;2022-08-19T10:34:42;101497.80;;;19.33;62.48
53679;BME280;40119;52.030;4.708;2022-08-19T10:36:46;101495.30;;;22.03;55.81
53679;BME280;40119;52.030;4.708;2022-08-19T10:38:52;101492.94;;;21.70;55.96
53679;BME280;40119;52.030;4.708;2022-08-19T10:40:58;101494.36;;;21.33;57.20
53679;BME280;40119;52.030;4.708;2022-08-19T10:43:10;101491.96;;;23.64;51.37
53679;BME280;40119;52.030;4.708;2022-08-19T10:45:16;101494.99;;;22.42;53.61
53679;BME280;40119;52.030;4.708;2022-08-19T10:47:21;101490.82;;;24.35;48.75
53679;BME280;40119;52.030;4.708;2022-08-19T10:49:26;101496.87;;;20.72;55.86
53679;BME280;40119;52.030;4.708;2022-08-19T10:51:31;101493.92;;;20.52;54.62
53679;BME280;40119;52.030;4.708;2022-08-19T10:53:36;101489.43;;;21.65;54.87
53679;BME280;40119;52.030;4.708;2022-08-19T10:55:45;101481.70;;;23.22;53.03
53679;BME280;40119;52.030;4.708;2022-08-19T10:57:50;101478.97;;;23.64;50.86
53679;BME280;40119;52.030;4.708;2022-08-19T10:59:55;101481.10;;;24.24;49.99
53679;BME280;40119;52.030;4.708;2022-08-19T11:02:01;101476.90;;;28.43;42.04
53679;BME280;40119;52.030;4.708;2022-08-19T11:04:07;101479.79;;;24.72;45.16
53679;BME280;40119;52.030;4.708;2022-08-19T11:06:12;101475.80;;;27.21;41.23
53679;BME280;40119;52.030;4.708;2022-08-19T11:08:17;101476.81;;;24.40;45.15
53679;BME280;40119;52.030;4.708;2022-08-19T11:10:22;101476.22;;;24.63;46.75